createdAt,value
2022-12-08T00:01:38.942Z,99895.19
2022-12-08T00:04:01.853Z,99897.09
2022-12-08T00:07:00.908Z,99892.22
2022-12-08T00:09:38.228Z,99899.53
2022-12-08T00:12:16.678Z,99904.16
2022-12-08T00:14:44.610Z,99903.59
2022-12-08T00:17:08.399Z,99912.06
2022-12-08T00:19:31.247Z,99914.22
2022-12-08T00:22:39.486Z,99907.16
2022-12-08T00:27:55.547Z,99918.81
2022-12-08T00:30:21.659Z,99919.66
2022-12-08T00:32:44.094Z,99919.38
2022-12-08T00:35:11.267Z,99922.38
2022-12-08T00:37:35.876Z,99915.03
2022-12-08T00:39:59.276Z,99921.56
2022-12-08T00:42:22.571Z,99931.91
2022-12-08T00:44:45.052Z,99932.44
2022-12-08T00:47:09.192Z,99924.53
2022-12-08T00:49:32.804Z,99919.94
2022-12-08T00:52:00.742Z,99943.59
2022-12-08T00:54:23.861Z,99945.75
2022-12-08T00:56:48.576Z,99935.97
2022-12-08T00:59:12.768Z,99953.63
2022-12-08T01:01:39.779Z,99939.25
2022-12-08T01:04:12.175Z,99945.50
2022-12-08T01:06:38.920Z,99951.47
2022-12-08T01:09:03.660Z,99959.06
2022-12-08T01:11:30.153Z,99946.56
2022-12-08T01:13:53.011Z,99949.84
2022-12-08T01:16:28.236Z,99962.06
2022-12-08T01:18:50.786Z,99964.78
2022-12-08T01:21:13.285Z,99954.44
2022-12-08T01:23:39.863Z,99952.53
2022-12-08T01:26:04.412Z,99969.69
2022-12-08T01:28:26.956Z,99971.56
2022-12-08T01:30:50.224Z,99954.16
2022-12-08T01:33:12.585Z,99948.72
2022-12-08T01:35:35.609Z,99947.09
2022-12-08T01:37:58.258Z,99959.88
2022-12-08T01:40:20.586Z,99957.16
2022-12-08T01:42:43.038Z,99962.06
2022-12-08T01:45:12.114Z,99974.28
2022-12-08T01:47:42.403Z,99954.19
2022-12-08T01:50:06.926Z,99956.59
2022-12-08T01:52:42.000Z,99962.31
2022-12-08T01:55:18.213Z,99980.53
2022-12-08T01:57:52.199Z,99961.50
2022-12-08T02:00:17.172Z,99984.59
2022-12-08T02:02:59.199Z,99974.28
2022-12-08T02:05:23.688Z,99973.47
2022-12-08T02:07:48.136Z,99968.28
2022-12-08T02:10:12.153Z,99963.69
2022-12-08T02:12:34.584Z,99981.59
2022-12-08T02:15:00.551Z,99963.38
2022-12-08T02:17:50.358Z,99973.72
2022-12-08T02:23:23.865Z,99991.38
2022-12-08T02:27:00.728Z,100001.22
2022-12-08T02:29:59.551Z,99990.84
2022-12-08T02:32:41.650Z,100025.69
2022-12-08T02:35:52.118Z,100016.97
2022-12-08T02:39:16.461Z,100028.13
2022-12-08T02:42:20.287Z,100022.16
2022-12-08T02:45:06.641Z,100045.28
2022-12-08T02:47:28.987Z,100020.78
2022-12-08T02:49:51.411Z,100032.22
2022-12-08T02:52:13.681Z,100022.69
2022-12-08T02:54:36.034Z,100029.75
2022-12-08T02:57:27.033Z,100030.28
2022-12-08T03:00:07.868Z,100040.63
2022-12-08T03:02:57.849Z,100067.84
2022-12-08T03:05:30.457Z,100039.84
2022-12-08T03:08:19.061Z,100048.53
2022-12-08T03:10:56.476Z,100042.28
2022-12-08T03:13:30.915Z,100055.31
2022-12-08T03:15:53.272Z,100053.72
2022-12-08T03:18:16.618Z,100055.34
2022-12-08T03:20:39.005Z,100048.25
2022-12-08T03:23:02.325Z,100059.69
2022-12-08T03:25:28.811Z,100065.41
2022-12-08T03:27:51.165Z,100043.38
2022-12-08T03:30:13.507Z,100044.72
2022-12-08T03:33:14.860Z,100037.38
2022-12-08T03:35:37.386Z,100043.09
2022-12-08T03:38:05.529Z,100049.34
2022-12-08T03:40:27.808Z,100048.50
2022-12-08T03:42:53.658Z,100053.13
2022-12-08T03:45:16.222Z,100057.75
2022-12-08T03:47:39.305Z,100056.13
2022-12-08T03:50:02.177Z,100058.84
2022-12-08T03:52:25.121Z,100073.81
2022-12-08T03:57:53.890Z,100072.16
2022-12-08T04:03:08.991Z,100068.38
2022-12-08T04:05:31.400Z,100074.06
2022-12-08T04:07:57.938Z,100084.13
2022-12-08T04:10:20.349Z,100084.41
2022-12-08T04:12:42.638Z,100074.59
2022-12-08T04:15:05.697Z,100079.22
2022-12-08T04:17:28.099Z,100080.84
2022-12-08T04:19:52.928Z,100083.28
2022-12-08T04:22:16.810Z,100085.19
2022-12-08T04:24:40.979Z,100085.19
2022-12-08T04:27:03.429Z,100078.13
2022-12-08T04:29:25.739Z,100080.84
2022-12-08T04:31:49.612Z,100084.09
2022-12-08T04:34:12.013Z,100091.41
2022-12-08T04:36:34.504Z,100093.59
2022-12-08T04:38:56.941Z,100085.69
2022-12-08T04:41:19.283Z,100085.69
2022-12-08T04:43:48.642Z,100105.28
2022-12-08T04:46:12.395Z,100091.66
2022-12-08T04:48:36.587Z,100091.97
2022-12-08T04:51:02.330Z,100099.00
2022-12-08T04:53:26.762Z,100081.88
2022-12-08T04:55:53.715Z,100085.41
2022-12-08T04:58:18.118Z,100084.56
2022-12-08T05:00:46.329Z,100081.88
2022-12-08T05:03:12.742Z,100082.94
2022-12-08T05:05:56.717Z,100079.16
2022-12-08T05:08:26.050Z,100079.13
2022-12-08T05:11:09.635Z,100068.78
2022-12-08T05:13:36.559Z,100077.47
2022-12-08T05:16:10.476Z,100091.34
2022-12-08T05:18:33.930Z,100085.09
2022-12-08T05:21:06.611Z,100077.19
2022-12-08T05:23:29.949Z,100087.78
2022-12-08T05:26:02.419Z,100076.34
2022-12-08T05:28:44.217Z,100089.94
2022-12-08T05:31:09.303Z,100080.69
2022-12-08T05:33:36.129Z,100083.69
2022-12-08T05:35:59.624Z,100079.59
2022-12-08T05:38:22.052Z,100063.53
2022-12-08T05:40:45.709Z,100076.31
2022-12-08T05:43:08.622Z,100076.00
2022-12-08T05:45:35.242Z,100078.72
2022-12-08T05:48:00.881Z,100081.44
2022-12-08T05:50:23.204Z,100090.09
2022-12-08T05:52:50.132Z,100086.03
2022-12-08T05:55:12.669Z,100092.78
2022-12-08T05:57:36.444Z,100080.03
2022-12-08T06:00:00.023Z,100091.16
2022-12-08T06:02:22.886Z,100086.78
2022-12-08T06:04:46.773Z,100094.66
2022-12-08T06:07:14.570Z,100092.44
2022-12-08T06:09:44.694Z,100092.44
2022-12-08T06:12:07.168Z,100112.50
2022-12-08T06:14:44.900Z,100110.31
2022-12-08T06:17:07.478Z,100101.91
2022-12-08T06:19:30.208Z,100106.25
2022-12-08T06:21:53.024Z,100111.09
2022-12-08T06:24:15.662Z,100112.75
2022-12-08T06:26:41.458Z,100117.91
2022-12-08T06:29:05.915Z,100110.56
2022-12-08T06:31:28.749Z,100124.41
2022-12-08T06:33:51.185Z,100123.91
2022-12-08T06:36:15.243Z,100116.28
2022-12-08T06:38:42.930Z,100122.81
2022-12-08T06:41:06.889Z,100116.53
2022-12-08T06:43:30.694Z,100118.16
2022-12-08T06:45:53.241Z,100117.34
2022-12-08T06:48:19.640Z,100126.84
2022-12-08T06:50:42.316Z,100125.25
2022-12-08T06:53:05.812Z,100125.25
2022-12-08T06:55:59.093Z,100132.56
2022-12-08T06:58:13.215Z,100128.19
2022-12-08T07:00:35.548Z,100136.03
2022-12-08T07:02:57.894Z,100119.47
2022-12-08T07:05:20.495Z,100127.38
2022-12-08T07:07:42.835Z,100129.03
2022-12-08T07:10:06.466Z,100122.00
2022-12-08T07:12:29.113Z,100131.50
2022-12-08T07:18:00.615Z,100127.44
2022-12-08T07:20:23.153Z,100128.53
2022-12-08T07:22:55.389Z,100122.03
2022-12-08T07:25:18.805Z,100128.56
2022-12-08T07:27:48.166Z,100129.13
2022-12-08T07:30:10.982Z,100134.53
2022-12-08T07:35:23.102Z,100135.34
2022-12-08T07:37:46.615Z,100122.84
2022-12-08T07:40:15.258Z,100128.28
2022-12-08T07:42:37.891Z,100130.16
2022-12-08T07:45:01.774Z,100124.72
2022-12-08T07:47:24.500Z,100132.34
2022-12-08T07:49:47.765Z,100140.78
2022-12-08T07:52:10.328Z,100138.09
2022-12-08T07:54:34.253Z,100144.34
2022-12-08T07:56:58.232Z,100134.84
2022-12-08T07:59:20.723Z,100127.81
2022-12-08T08:01:45.510Z,100133.78
2022-12-08T08:04:08.053Z,100131.06
2022-12-08T08:06:31.974Z,100131.91
2022-12-08T08:08:54.659Z,100136.28
2022-12-08T08:11:21.301Z,100134.66
2022-12-08T08:13:44.044Z,100138.47
2022-12-08T08:16:08.569Z,100132.78
2022-12-08T08:18:30.912Z,100136.31
2022-12-08T08:20:53.243Z,100133.31
2022-12-08T08:23:15.545Z,100133.34
2022-12-08T08:25:37.894Z,100128.44
2022-12-08T08:28:00.205Z,100124.41
2022-12-08T08:30:23.989Z,100124.13
2022-12-08T08:32:46.285Z,100131.50
2022-12-08T08:35:09.235Z,100121.47
2022-12-08T08:37:31.811Z,100119.84
2022-12-08T08:39:54.214Z,100123.66
2022-12-08T08:42:16.587Z,100116.38
2022-12-08T08:44:39.189Z,100116.94
2022-12-08T08:47:01.551Z,100127.53
2022-12-08T08:49:23.958Z,100118.84
2022-12-08T08:51:46.521Z,100112.34
2022-12-08T08:54:08.867Z,100110.97
2022-12-08T08:56:31.343Z,100114.22
2022-12-08T08:58:54.029Z,100116.16
2022-12-08T09:01:22.157Z,100113.19
2022-12-08T09:03:45.073Z,100110.44
2022-12-08T09:06:07.481Z,100105.28
2022-12-08T09:08:29.983Z,100106.13
2022-12-08T09:10:52.373Z,100109.66
2022-12-08T09:13:14.721Z,100112.13
2022-12-08T09:15:37.301Z,100104.50
2022-12-08T09:17:59.746Z,100105.06
2022-12-08T09:20:22.073Z,100106.69
2022-12-08T09:22:44.441Z,100103.47
2022-12-08T09:25:07.053Z,100100.16
2022-12-08T09:27:29.361Z,100100.72
2022-12-08T09:29:51.700Z,100096.66
2022-12-08T09:32:14.075Z,100088.22
2022-12-08T09:34:36.452Z,100090.41
2022-12-08T09:36:58.771Z,100088.22
2022-12-08T09:39:21.099Z,100087.69
2022-12-08T09:41:48.508Z,100083.06
2022-12-08T09:44:59.796Z,100079.81
2022-12-08T09:47:35.479Z,100071.91
2022-12-08T09:50:14.853Z,100065.91
2022-12-08T09:52:45.290Z,100071.34
2022-12-08T09:55:40.778Z,100061.81
2022-12-08T09:58:03.488Z,100063.47
2022-12-08T10:00:25.876Z,100049.59
2022-12-08T10:02:48.307Z,100049.59
2022-12-08T10:05:13.762Z,100051.22
2022-12-08T10:08:06.518Z,100039.00
2022-12-08T10:10:38.959Z,100043.34
2022-12-08T10:13:08.745Z,100042.81
2022-12-08T10:15:34.875Z,100030.59
2022-12-08T10:17:57.894Z,100018.34
2022-12-08T10:20:26.081Z,100012.38
2022-12-08T10:23:02.705Z,100004.50
2022-12-08T10:25:46.726Z,100009.09
2022-12-08T10:37:12.816Z,99993.31
2022-12-08T10:39:43.948Z,100002.28
2022-12-08T10:42:17.477Z,99992.81
2022-12-08T10:44:51.781Z,99996.31
2022-12-08T10:47:14.235Z,99999.59
2022-12-08T10:49:38.717Z,99993.84
2022-12-08T10:52:01.009Z,99986.25
2022-12-08T10:54:33.459Z,99987.34
2022-12-08T10:56:56.906Z,99981.09
2022-12-08T10:59:19.678Z,99971.00
2022-12-08T11:01:46.817Z,99977.00
2022-12-08T11:04:17.636Z,99985.69
2022-12-08T11:06:40.200Z,99981.88
2022-12-08T11:09:17.745Z,99974.00
2022-12-08T11:11:52.154Z,99971.00
2022-12-08T11:14:32.266Z,99972.88
2022-12-08T11:17:02.485Z,99970.97
2022-12-08T11:19:27.867Z,99982.13
2022-12-08T11:21:50.176Z,99980.22
2022-12-08T11:24:15.388Z,99979.69
2022-12-08T11:26:37.717Z,99987.56
2022-12-08T11:29:00.057Z,99976.13
2022-12-08T11:31:34.734Z,99977.50
2022-12-08T11:33:57.237Z,99980.75
2022-12-08T11:36:19.511Z,99973.94
2022-12-08T11:38:44.571Z,99971.50
2022-12-08T11:41:16.534Z,99968.22
2022-12-08T11:44:22.497Z,99973.94
2022-12-08T11:46:50.910Z,99966.03
2022-12-08T11:49:14.247Z,99964.69
2022-12-08T11:52:12.149Z,99957.34
2022-12-08T11:54:51.219Z,99958.94
2022-12-08T11:57:16.636Z,99961.63
2022-12-08T11:59:46.240Z,99954.81
2022-12-08T12:02:15.080Z,99961.09
2022-12-08T12:05:08.137Z,99962.44
2022-12-08T12:08:21.231Z,99961.06
2022-12-08T12:11:42.754Z,99953.97
2022-12-08T12:14:52.828Z,99955.31
2022-12-08T12:18:01.619Z,99947.97
2022-12-08T12:20:42.243Z,99938.41
2022-12-08T12:23:41.658Z,99943.28
2022-12-08T12:26:09.947Z,99953.63
2022-12-08T12:29:02.633Z,99947.91
2022-12-08T12:31:48.856Z,99950.59
2022-12-08T12:34:19.440Z,99945.97
2022-12-08T12:37:04.250Z,99947.31
2022-12-08T12:39:29.683Z,99941.59
2022-12-08T12:41:58.213Z,99941.56
2022-12-08T12:44:29.160Z,99933.38
2022-12-08T12:46:51.550Z,99939.66
2022-12-08T12:49:43.868Z,99942.59
2022-12-08T12:52:24.076Z,99937.97
2022-12-08T12:55:09.003Z,99930.34
2022-12-08T12:57:37.672Z,99935.25
2022-12-08T12:59:59.859Z,99939.06
2022-12-08T13:02:27.952Z,99934.94
2022-12-08T13:05:22.654Z,99918.31
2022-12-08T13:07:56.341Z,99930.56
2022-12-08T13:10:26.145Z,99936.00
2022-12-08T13:13:10.715Z,99940.91
2022-12-08T13:15:41.695Z,99942.81
2022-12-08T13:18:04.596Z,99927.00
2022-12-08T13:20:26.902Z,99931.34
2022-12-08T13:23:02.413Z,99926.19
2022-12-08T13:25:40.037Z,99943.31
2022-12-08T13:28:14.027Z,99938.44
2022-12-08T13:30:46.335Z,99946.03
2022-12-08T13:33:39.878Z,99939.50
2022-12-08T13:36:14.844Z,99952.00
2022-12-08T13:38:37.766Z,99950.91
2022-12-08T13:41:01.758Z,99947.09
2022-12-08T13:43:45.079Z,99954.41
2022-12-08T13:46:57.913Z,99945.72
2022-12-08T13:50:30.728Z,99938.38
2022-12-08T13:53:35.059Z,99933.94
2022-12-08T13:55:26.863Z,99939.41
2022-12-08T13:57:33.774Z,99935.84
2022-12-08T14:00:21.348Z,99926.84
2022-12-08T14:02:48.862Z,99933.63
2022-12-08T14:05:20.333Z,99921.63
2022-12-08T14:07:47.460Z,99926.00
2022-12-08T14:10:16.587Z,99919.44
2022-12-08T14:12:38.923Z,99921.88
2022-12-08T14:15:04.770Z,99917.28
2022-12-08T14:17:27.415Z,99914.84
2022-12-08T14:20:02.344Z,99926.84
2022-12-08T14:22:25.048Z,99922.47
2022-12-08T14:24:52.194Z,99915.41
2022-12-08T14:27:17.729Z,99921.13
2022-12-08T14:29:51.154Z,99924.75
2022-12-08T14:32:26.821Z,99911.94
2022-12-08T14:34:58.449Z,99911.69
2022-12-08T14:37:20.780Z,99912.75
2022-12-08T14:39:43.121Z,99913.03
2022-12-08T14:42:05.828Z,99921.50
2022-12-08T14:44:31.409Z,99923.47
2022-12-08T14:47:08.348Z,99929.72
2022-12-08T14:49:35.875Z,99939.25
2022-12-08T14:51:58.208Z,99929.75
2022-12-08T14:54:20.552Z,99930.25
2022-12-08T14:56:53.239Z,99929.75
2022-12-08T14:59:35.564Z,99942.56
2022-12-08T15:02:26.524Z,99948.81
2022-12-08T15:04:54.860Z,99945.25
2022-12-08T15:07:22.858Z,99953.13
2022-12-08T15:09:50.856Z,99959.13
2022-12-08T15:12:13.067Z,99955.88
2022-12-08T15:14:37.565Z,99956.41
2022-12-08T15:17:00.035Z,99948.47
2022-12-08T15:19:33.419Z,99959.91
2022-12-08T15:22:12.142Z,99943.56
2022-12-08T15:24:35.671Z,99943.81
2022-12-08T15:26:58.032Z,99925.56
2022-12-08T15:29:23.881Z,99936.47
2022-12-08T15:31:46.288Z,99926.91
2022-12-08T15:34:08.688Z,99929.88
2022-12-08T15:36:30.980Z,99941.59
2022-12-08T15:38:53.300Z,99920.63
2022-12-08T15:41:15.618Z,99918.72
2022-12-08T15:43:37.956Z,99918.41
2022-12-08T15:46:00.667Z,99924.16
2022-12-08T15:48:26.955Z,99914.34
2022-12-08T15:50:49.554Z,99920.06
2022-12-08T15:53:11.951Z,99911.88
2022-12-08T15:55:38.834Z,99910.78
2022-12-08T15:58:51.829Z,99909.97
2022-12-08T16:00:52.306Z,99909.97
2022-12-08T16:04:19.827Z,99919.47
2022-12-08T16:09:11.737Z,99914.84
2022-12-08T16:12:10.398Z,99911.00
2022-12-08T16:15:46.721Z,99911.00
2022-12-08T16:17:16.694Z,99914.84
2022-12-08T16:19:39.028Z,99912.13
2022-12-08T16:24:43.796Z,99912.13
2022-12-08T16:29:48.419Z,99906.94
2022-12-08T16:32:10.877Z,99909.97
2022-12-08T16:34:33.322Z,99907.50
2022-12-08T16:36:55.702Z,99909.97
2022-12-08T16:39:18.071Z,99910.25
2022-12-08T16:41:59.389Z,99906.13
2022-12-08T16:44:21.719Z,99896.34
2022-12-08T16:46:44.084Z,99905.59
2022-12-08T16:49:08.237Z,99904.53
2022-12-08T16:51:30.568Z,99893.63
2022-12-08T16:53:52.947Z,99896.34
2022-12-08T16:56:20.057Z,99903.69
2022-12-08T16:58:42.403Z,99901.22
2022-12-08T17:01:04.760Z,99889.19
2022-12-08T17:03:27.262Z,99896.03
2022-12-08T17:05:49.565Z,99891.66
2022-12-08T17:08:13.283Z,99901.75
2022-12-08T17:10:39.394Z,99901.75
2022-12-08T17:13:02.337Z,99903.63
2022-12-08T17:15:25.715Z,99895.72
2022-12-08T17:17:48.265Z,99893.53
2022-12-08T17:20:40.443Z,99905.78
2022-12-08T17:23:02.742Z,99891.03
2022-12-08T17:25:26.526Z,99900.03
2022-12-08T17:27:48.825Z,99901.66
2022-12-08T17:30:15.051Z,99899.47
2022-12-08T17:32:38.478Z,99896.72
2022-12-08T17:35:00.809Z,99907.38
2022-12-08T17:37:23.147Z,99900.00
2022-12-08T17:39:45.659Z,99898.38
2022-12-08T17:42:08.120Z,99894.00
2022-12-08T17:44:31.000Z,99883.91
2022-12-08T17:46:53.543Z,99889.13
2022-12-08T17:49:23.994Z,99890.75
2022-12-08T17:51:50.713Z,99891.28
2022-12-08T17:54:13.054Z,99895.13
2022-12-08T17:56:35.359Z,99885.81
2022-12-08T17:58:57.722Z,99890.19
2022-12-08T18:01:20.090Z,99875.50
2022-12-08T18:03:42.452Z,99890.69
2022-12-08T18:06:09.742Z,99892.66
2022-12-08T18:08:32.110Z,99882.53
2022-12-08T18:10:54.465Z,99895.06
2022-12-08T18:13:16.812Z,99885.78
2022-12-08T18:15:39.530Z,99873.56
2022-12-08T18:18:01.890Z,99881.44
2022-12-08T18:20:24.272Z,99875.13
2022-12-08T18:22:46.582Z,99897.22
2022-12-08T18:25:10.036Z,99880.28
2022-12-08T18:27:32.752Z,99872.63
2022-12-08T18:29:55.146Z,99874.78
2022-12-08T18:32:17.500Z,99876.72
2022-12-08T18:34:39.850Z,99872.59
2022-12-08T18:37:03.599Z,99882.41
2022-12-08T18:39:28.862Z,99881.84
2022-12-08T18:41:52.190Z,99877.75
2022-12-08T18:44:14.496Z,99886.75
2022-12-08T18:46:36.897Z,99884.56
2022-12-08T18:48:59.547Z,99888.38
2022-12-08T18:51:23.611Z,99886.16
2022-12-08T18:53:46.184Z,99893.84
2022-12-08T18:56:08.725Z,99899.53
2022-12-08T18:58:31.063Z,99905.81
2022-12-08T19:00:53.367Z,99898.72
2022-12-08T19:03:15.729Z,99903.88
2022-12-08T19:05:38.385Z,99905.22
2022-12-08T19:08:00.765Z,99909.88
2022-12-08T19:10:23.114Z,99900.56
2022-12-08T19:12:45.554Z,99904.41
2022-12-08T19:15:09.070Z,99917.81
2022-12-08T19:17:31.678Z,99907.72
2022-12-08T19:19:54.025Z,99916.47
2022-12-08T19:22:16.363Z,99918.06
2022-12-08T19:24:38.787Z,99920.53
2022-12-08T19:27:01.516Z,99929.81
2022-12-08T19:29:23.869Z,99931.13
2022-12-08T19:31:46.328Z,99932.78
2022-12-08T19:34:09.863Z,99923.25
2022-12-08T19:36:35.642Z,99933.66
2022-12-08T19:39:17.280Z,99930.09
2022-12-08T19:41:58.378Z,99934.16
2022-12-08T19:44:46.408Z,99936.38
2022-12-08T19:47:09.181Z,99940.47
2022-12-08T19:49:31.833Z,99933.41
2022-12-08T19:51:54.182Z,99938.28
2022-12-08T19:54:16.472Z,99943.25
2022-12-08T19:56:38.866Z,99932.03
2022-12-08T19:59:01.198Z,99936.47
2022-12-08T20:01:23.550Z,99934.56
2022-12-08T20:03:45.960Z,99948.47
2022-12-08T20:06:15.787Z,99952.84
2022-12-08T20:08:38.191Z,99948.22
2022-12-08T20:11:00.578Z,99949.34
2022-12-08T20:13:40.913Z,99951.00
2022-12-08T20:16:03.341Z,99950.25
2022-12-08T20:18:25.877Z,99947.00
2022-12-08T20:20:48.718Z,99956.50
2022-12-08T20:23:11.136Z,99957.59
2022-12-08T20:25:33.776Z,99957.91
2022-12-08T20:27:56.250Z,99959.88
2022-12-08T20:30:18.577Z,99967.78
2022-12-08T20:32:40.893Z,99965.09
2022-12-08T20:35:03.664Z,99964.03
2022-12-08T20:37:26.277Z,99970.66
2022-12-08T20:39:48.857Z,99967.31
2022-12-08T20:42:14.387Z,99959.78
2022-12-08T20:44:36.851Z,99966.03
2022-12-08T20:46:59.201Z,99972.31
2022-12-08T20:49:21.786Z,99977.25
2022-12-08T20:51:44.582Z,99975.63
2022-12-08T20:54:07.028Z,99973.44
2022-12-08T20:56:31.342Z,99982.41
2022-12-08T20:58:54.093Z,99983.25
2022-12-08T21:01:19.136Z,99995.78
2022-12-08T21:03:42.068Z,99990.88
2022-12-08T21:06:05.057Z,99988.44
2022-12-08T21:08:27.699Z,99991.16
2022-12-08T21:10:57.357Z,99987.63
2022-12-08T21:13:19.802Z,99996.91
2022-12-08T21:15:46.560Z,99991.19
2022-12-08T21:18:09.312Z,99989.28
2022-12-08T21:20:31.824Z,99990.66
2022-12-08T21:22:54.261Z,99996.13
2022-12-08T21:25:16.865Z,100009.47
2022-12-08T21:27:39.443Z,100005.66
2022-12-08T21:30:01.861Z,100004.84
2022-12-08T21:32:29.929Z,100015.19
2022-12-08T21:34:53.023Z,100021.19
2022-12-08T21:37:15.829Z,100018.72
2022-12-08T21:39:38.852Z,100015.47
2022-12-08T21:42:22.705Z,100011.63
2022-12-08T21:44:45.606Z,100012.75
2022-12-08T21:47:08.044Z,100007.31
2022-12-08T21:49:30.576Z,99995.59
2022-12-08T21:51:52.899Z,100012.19
2022-12-08T21:54:18.968Z,100008.94
2022-12-08T21:56:41.711Z,100007.59
2022-12-08T21:59:04.194Z,99999.13
2022-12-08T22:01:26.676Z,99999.16
2022-12-08T22:03:49.300Z,99994.50
2022-12-08T22:06:13.181Z,99984.97
2022-12-08T22:08:35.922Z,99988.50
2022-12-08T22:10:38.395Z,99986.56
2022-12-08T22:12:40.870Z,99992.00
2022-12-08T22:14:43.797Z,99988.50
2022-12-08T22:16:46.005Z,99993.94
2022-12-08T22:18:48.173Z,99996.91
2022-12-08T22:20:50.352Z,100012.69
2022-12-08T22:22:52.697Z,100013.25
2022-12-08T22:24:54.798Z,100012.72
2022-12-08T22:26:56.898Z,100012.19
2022-12-08T22:28:59.190Z,100016.81
2022-12-08T22:31:01.327Z,100013.81
2022-12-08T22:33:03.616Z,100028.78
2022-12-08T22:35:06.152Z,100023.06
2022-12-08T22:37:08.211Z,100020.63
2022-12-08T22:39:10.475Z,100022.22
2022-12-08T22:41:12.938Z,100011.03
2022-12-08T22:43:15.326Z,100024.13
2022-12-08T22:45:17.539Z,100036.13
2022-12-08T22:47:38.352Z,100030.97
2022-12-08T22:49:59.060Z,100032.88
2022-12-08T22:52:21.428Z,100027.41
2022-12-08T22:54:43.845Z,100023.03
2022-12-08T22:57:06.197Z,100006.16
2022-12-08T22:59:29.664Z,100011.81
2022-12-08T23:01:53.978Z,100014.28
2022-12-08T23:04:18.348Z,100019.22
2022-12-08T23:06:40.974Z,100022.72
2022-12-08T23:09:03.395Z,100021.91
2022-12-08T23:11:28.720Z,100015.94
2022-12-08T23:13:51.588Z,100015.66
2022-12-08T23:16:14.397Z,100026.31
2022-12-08T23:18:37.176Z,100026.59
2022-12-08T23:21:06.986Z,100029.03
2022-12-08T23:23:29.309Z,100024.66
2022-12-08T23:25:51.630Z,100022.50
2022-12-08T23:28:17.158Z,100029.59
2022-12-08T23:30:42.693Z,100030.09
2022-12-08T23:33:05.160Z,100037.47
2022-12-08T23:35:27.874Z,100039.13
2022-12-08T23:37:50.382Z,100032.56
2022-12-08T23:40:12.979Z,100029.56
2022-12-08T23:42:35.401Z,100023.56
2022-12-08T23:44:58.040Z,100035.00
2022-12-08T23:47:20.839Z,100024.09
2022-12-08T23:49:43.324Z,100028.47
2022-12-08T23:52:05.924Z,100033.91
2022-12-08T23:54:28.327Z,100033.63
2022-12-08T23:56:50.652Z,100038.84
2022-12-08T23:59:13.016Z,100038.84
